createdAt,value
2019-04-05T00:01:37.238Z,5.30
2019-04-05T00:04:18.030Z,5.30
2019-04-05T00:06:58.849Z,5.40
2019-04-05T00:09:39.576Z,5.40
2019-04-05T00:12:20.541Z,5.40
2019-04-05T00:15:14.263Z,5.40
2019-04-05T00:17:43.197Z,5.40
2019-04-05T00:20:24.045Z,5.40
2019-04-05T00:23:04.593Z,5.40
2019-04-05T00:25:44.953Z,5.40
2019-04-05T00:28:25.522Z,5.40
2019-04-05T00:31:06.463Z,5.40
2019-04-05T00:33:47.384Z,5.30
2019-04-05T00:36:27.810Z,5.40
2019-04-05T00:39:07.477Z,5.40
2019-04-05T00:41:55.338Z,5.30
2019-04-05T00:44:34.153Z,5.20
2019-04-05T00:47:21.940Z,5.20
2019-04-05T00:50:09.882Z,5.30
2019-04-05T00:52:57.672Z,5.20
2019-04-05T00:55:45.437Z,5.20
2019-04-05T00:58:33.226Z,5.30
2019-04-05T01:01:20.993Z,5.30
2019-04-05T01:04:08.780Z,5.20
2019-04-05T01:06:56.553Z,5.20
2019-04-05T01:09:44.336Z,5.20
2019-04-05T01:12:52.109Z,5.20
2019-04-05T01:15:41.299Z,5.20
2019-04-05T01:18:29.540Z,5.30
2019-04-05T01:21:38.090Z,5.20
2019-04-05T01:27:34.808Z,5.20
2019-04-05T01:30:22.577Z,5.20
2019-04-05T01:33:10.432Z,5.20
2019-04-05T01:35:58.239Z,5.20
2019-04-05T01:38:46.068Z,5.20
2019-04-05T01:41:26.285Z,5.20
2019-04-05T01:44:07.028Z,5.20
2019-04-05T01:46:47.653Z,5.20
2019-04-05T01:49:28.306Z,5.30
2019-04-05T01:52:09.137Z,5.20
2019-04-05T01:54:50.001Z,5.30
2019-04-05T01:57:31.057Z,5.30
2019-04-05T02:00:12.026Z,5.30
2019-04-05T02:02:52.478Z,5.30
2019-04-05T02:05:33.333Z,5.30
2019-04-05T02:08:14.376Z,5.30
2019-04-05T02:10:55.233Z,5.30
2019-04-05T02:13:36.454Z,5.30
2019-04-05T02:16:17.853Z,5.30
2019-04-05T02:18:58.731Z,5.30
2019-04-05T02:21:39.212Z,5.30
2019-04-05T02:24:20.150Z,5.30
2019-04-05T02:27:00.713Z,5.30
2019-04-05T02:29:41.557Z,5.30
2019-04-05T02:32:22.399Z,5.30
2019-04-05T02:35:02.931Z,5.30
2019-04-05T02:37:43.604Z,5.30
2019-04-05T02:40:24.106Z,5.20
2019-04-05T02:43:04.632Z,5.30
2019-04-05T02:45:45.601Z,5.30
2019-04-05T02:48:26.246Z,5.30
2019-04-05T02:51:07.241Z,5.20
2019-04-05T02:53:48.112Z,5.30
2019-04-05T02:56:29.009Z,5.30
2019-04-05T02:59:09.857Z,5.30
2019-04-05T03:01:50.583Z,5.30
2019-04-05T03:04:31.493Z,5.20
2019-04-05T03:07:12.026Z,5.30
2019-04-05T03:09:52.394Z,5.30
2019-04-05T03:12:33.395Z,5.20
2019-04-05T03:15:13.933Z,5.20
2019-04-05T03:17:55.020Z,5.20
2019-04-05T03:20:36.021Z,5.20
2019-04-05T03:23:16.758Z,5.20
2019-04-05T03:25:57.742Z,5.10
2019-04-05T03:28:38.487Z,5.00
2019-04-05T03:31:24.460Z,5.00
2019-04-05T03:34:01.839Z,5.00
2019-04-05T03:36:42.880Z,5.00
2019-04-05T03:39:23.818Z,5.00
2019-04-05T03:42:04.497Z,4.90
2019-04-05T03:44:45.529Z,4.90
2019-04-05T03:47:26.262Z,4.90
2019-04-05T03:50:06.825Z,4.90
2019-04-05T03:52:47.709Z,4.90
2019-04-05T03:55:28.478Z,4.80
2019-04-05T03:58:09.250Z,4.80
2019-04-05T04:00:50.102Z,4.80
2019-04-05T04:03:30.773Z,4.80
2019-04-05T04:06:58.806Z,4.80
2019-04-05T04:09:27.582Z,4.80
2019-04-05T04:11:56.181Z,4.90
2019-04-05T04:14:24.717Z,4.90
2019-04-05T04:17:10.999Z,4.80
2019-04-05T04:19:25.234Z,4.90
2019-04-05T04:22:13.550Z,4.90
2019-04-05T04:24:42.616Z,4.90
2019-04-05T04:27:12.300Z,4.80
2019-04-05T04:29:41.501Z,4.80
2019-04-05T04:32:09.921Z,4.80
2019-04-05T04:34:38.708Z,4.80
2019-04-05T04:37:07.271Z,4.80
2019-04-05T04:39:36.632Z,4.70
2019-04-05T04:42:05.789Z,4.70
2019-04-05T04:44:34.222Z,4.80
2019-04-05T04:47:02.664Z,4.80
2019-04-05T04:49:32.228Z,4.70
2019-04-05T04:52:01.212Z,4.70
2019-04-05T04:54:29.708Z,4.70
2019-04-05T04:56:58.343Z,4.70
2019-04-05T04:59:26.913Z,4.70
2019-04-05T05:01:55.638Z,4.70
2019-04-05T05:04:24.357Z,4.70
2019-04-05T05:06:53.220Z,4.70
2019-04-05T05:09:21.731Z,4.70
2019-04-05T05:11:50.672Z,4.80
2019-04-05T05:14:19.360Z,4.80
2019-04-05T05:16:47.973Z,4.80
2019-04-05T05:19:16.777Z,4.80
2019-04-05T05:21:45.696Z,4.80
2019-04-05T05:24:14.149Z,4.90
2019-04-05T05:26:42.709Z,4.90
2019-04-05T05:29:11.204Z,4.90
2019-04-05T05:31:39.701Z,5.00
2019-04-05T05:34:08.221Z,5.00
2019-04-05T05:36:36.646Z,5.00
2019-04-05T05:39:07.320Z,5.10
2019-04-05T05:41:35.886Z,5.10
2019-04-05T05:44:04.645Z,5.10
2019-04-05T05:46:33.166Z,5.10
2019-04-05T05:49:01.744Z,5.10
2019-04-05T05:51:30.924Z,5.20
2019-04-05T05:53:59.352Z,5.20
2019-04-05T05:56:27.855Z,5.20
2019-04-05T05:58:59.410Z,5.20
2019-04-05T06:01:26.814Z,5.10
2019-04-05T06:03:55.346Z,5.20
2019-04-05T06:06:23.776Z,5.10
2019-04-05T06:08:52.216Z,5.00
2019-04-05T06:11:20.735Z,5.00
2019-04-05T06:13:49.249Z,5.00
2019-04-05T06:16:17.667Z,5.10
2019-04-05T06:18:48.468Z,5.30
2019-04-05T06:21:16.266Z,5.30
2019-04-05T06:23:44.700Z,5.40
2019-04-05T06:26:13.141Z,5.50
2019-04-05T06:28:41.643Z,5.60
2019-04-05T06:31:10.173Z,5.70
2019-04-05T06:33:38.636Z,5.70
2019-04-05T06:36:07.272Z,5.70
2019-04-05T06:38:35.732Z,5.70
2019-04-05T06:41:04.232Z,5.80
2019-04-05T06:43:32.732Z,5.90
2019-04-05T06:46:01.255Z,5.90
2019-04-05T06:48:29.934Z,6.00
2019-04-05T06:50:58.459Z,6.10
2019-04-05T06:53:26.922Z,6.10
2019-04-05T06:55:55.356Z,6.10
2019-04-05T06:58:28.994Z,6.00
2019-04-05T07:00:57.392Z,6.00
2019-04-05T07:03:24.113Z,6.10
2019-04-05T07:05:52.566Z,6.10
2019-04-05T07:08:20.998Z,6.10
2019-04-05T07:10:49.459Z,6.20
2019-04-05T07:13:17.892Z,6.10
2019-04-05T07:15:46.347Z,6.20
2019-04-05T07:18:14.993Z,6.30
2019-04-05T07:20:43.429Z,6.30
2019-04-05T07:23:11.876Z,6.30
2019-04-05T07:25:40.300Z,6.30
2019-04-05T07:28:08.750Z,6.30
2019-04-05T07:30:37.177Z,6.30
2019-04-05T07:33:05.613Z,6.40
2019-04-05T07:35:34.293Z,6.30
2019-04-05T07:38:02.838Z,6.30
2019-04-05T07:40:31.365Z,6.30
2019-04-05T07:42:59.792Z,6.30
2019-04-05T07:45:28.317Z,6.50
2019-04-05T07:47:56.753Z,6.50
2019-04-05T07:50:25.252Z,6.50
2019-04-05T07:52:53.702Z,6.60
2019-04-05T07:55:22.131Z,6.70
2019-04-05T07:57:50.593Z,6.70
2019-04-05T08:00:24.876Z,6.70
2019-04-05T08:02:53.338Z,6.70
2019-04-05T08:05:21.768Z,6.80
2019-04-05T08:07:51.540Z,6.80
2019-04-05T08:10:22.139Z,6.70
2019-04-05T08:12:51.550Z,6.80
2019-04-05T08:15:19.996Z,6.90
2019-04-05T08:17:48.437Z,6.90
2019-04-05T08:20:16.868Z,7.00
2019-04-05T08:22:45.333Z,7.00
2019-04-05T08:25:13.766Z,7.00
2019-04-05T08:27:42.228Z,6.90
2019-04-05T08:30:10.832Z,6.90
2019-04-05T08:32:39.265Z,7.00
2019-04-05T08:35:07.849Z,7.00
2019-04-05T08:37:36.276Z,7.10
2019-04-05T08:40:06.544Z,7.20
2019-04-05T08:42:35.141Z,7.10
2019-04-05T08:45:04.838Z,7.00
2019-04-05T08:47:33.261Z,7.00
2019-04-05T08:50:01.733Z,7.00
2019-04-05T08:52:30.154Z,7.00
2019-04-05T08:54:58.585Z,7.00
2019-04-05T08:57:27.043Z,7.10
2019-04-05T08:59:55.485Z,7.20
2019-04-05T09:02:23.987Z,7.30
2019-04-05T09:04:52.433Z,7.40
2019-04-05T09:07:20.856Z,7.40
2019-04-05T09:09:49.276Z,7.40
2019-04-05T09:12:17.729Z,7.40
2019-04-05T09:14:46.148Z,7.30
2019-04-05T09:17:14.576Z,7.40
2019-04-05T09:19:43.033Z,7.50
2019-04-05T09:22:11.461Z,7.50
2019-04-05T09:24:39.877Z,7.50
2019-04-05T09:27:08.365Z,7.60
2019-04-05T09:29:36.810Z,7.70
2019-04-05T09:32:05.332Z,7.90
2019-04-05T09:34:33.813Z,8.10
2019-04-05T09:37:02.242Z,8.20
2019-04-05T09:39:30.693Z,8.20
2019-04-05T09:41:59.116Z,8.30
2019-04-05T09:44:27.565Z,8.40
2019-04-05T09:46:56.209Z,8.50
2019-04-05T09:49:36.028Z,8.60
2019-04-05T09:51:54.841Z,8.50
2019-04-05T09:54:23.260Z,8.40
2019-04-05T09:56:51.715Z,8.50
2019-04-05T09:59:20.206Z,8.30
2019-04-05T10:01:48.634Z,8.50
2019-04-05T10:04:17.116Z,8.60
2019-04-05T10:06:45.544Z,8.40
2019-04-05T10:09:14.271Z,8.40
2019-04-05T10:11:42.697Z,8.20
2019-04-05T10:14:11.114Z,8.10
2019-04-05T10:16:39.554Z,8.30
2019-04-05T10:19:07.978Z,8.10
2019-04-05T10:21:36.420Z,8.00
2019-04-05T10:24:05.522Z,8.20
2019-04-05T10:26:34.015Z,8.20
2019-04-05T10:29:02.469Z,8.20
2019-04-05T10:31:30.897Z,8.20
2019-04-05T10:33:59.348Z,8.20
2019-04-05T10:36:27.770Z,8.30
2019-04-05T10:38:56.205Z,8.20
2019-04-05T10:41:24.649Z,8.20
2019-04-05T10:43:53.072Z,8.30
2019-04-05T10:46:21.584Z,8.10
2019-04-05T10:48:50.010Z,8.00
2019-04-05T10:51:18.509Z,8.00
2019-04-05T10:53:46.944Z,7.90
2019-04-05T10:56:15.375Z,7.80
2019-04-05T10:58:43.869Z,7.70
2019-04-05T11:01:12.452Z,7.70
2019-04-05T11:03:40.868Z,7.70
2019-04-05T11:06:09.305Z,7.80
2019-04-05T11:08:37.777Z,8.00
2019-04-05T11:11:06.205Z,8.00
2019-04-05T11:13:34.629Z,8.10
2019-04-05T11:16:04.234Z,8.20
2019-04-05T11:18:33.551Z,8.30
2019-04-05T11:21:02.176Z,8.30
2019-04-05T11:23:30.665Z,8.40
2019-04-05T11:25:59.084Z,8.70
2019-04-05T11:28:27.537Z,8.70
2019-04-05T11:30:55.954Z,8.60
2019-04-05T11:33:24.475Z,8.40
2019-04-05T11:35:53.160Z,8.30
2019-04-05T11:38:24.274Z,8.30
2019-04-05T11:40:52.757Z,8.30
2019-04-05T11:43:26.224Z,8.20
2019-04-05T11:45:53.545Z,8.10
2019-04-05T11:48:22.033Z,8.10
2019-04-05T11:50:50.477Z,7.90
2019-04-05T11:53:21.896Z,7.90
2019-04-05T11:55:49.117Z,8.00
2019-04-05T11:58:17.560Z,8.00
2019-04-05T12:01:02.431Z,7.90
2019-04-05T12:03:32.340Z,7.90
2019-04-05T12:06:00.769Z,8.10
2019-04-05T12:08:29.185Z,8.10
2019-04-05T12:10:57.658Z,8.10
2019-04-05T12:13:26.076Z,8.20
2019-04-05T12:15:54.521Z,8.30
2019-04-05T12:18:22.982Z,8.50
2019-04-05T12:20:59.678Z,8.70
2019-04-05T12:23:21.656Z,8.80
2019-04-05T12:25:50.142Z,8.70
2019-04-05T12:28:18.585Z,8.60
2019-04-05T12:30:48.376Z,8.50
2019-04-05T12:33:19.103Z,8.50
2019-04-05T12:35:46.957Z,8.40
2019-04-05T12:38:28.136Z,8.50
2019-04-05T12:40:47.268Z,8.20
2019-04-05T12:43:15.689Z,8.30
2019-04-05T12:45:44.746Z,8.40
2019-04-05T12:48:16.080Z,8.30
2019-04-05T12:50:44.970Z,8.30
2019-04-05T12:53:13.964Z,8.50
2019-04-05T12:55:42.384Z,8.40
2019-04-05T12:58:10.829Z,8.50
2019-04-05T13:00:39.328Z,8.70
2019-04-05T13:03:07.771Z,8.70
2019-04-05T13:05:36.264Z,8.80
2019-04-05T13:08:05.002Z,8.90
2019-04-05T13:10:33.497Z,9.10
2019-04-05T13:13:02.077Z,8.90
2019-04-05T13:15:30.652Z,8.90
2019-04-05T13:18:01.217Z,9.10
2019-04-05T13:20:30.432Z,8.90
2019-04-05T13:23:02.524Z,8.80
2019-04-05T13:25:29.645Z,8.60
2019-04-05T13:27:58.150Z,8.60
2019-04-05T13:30:26.601Z,8.70
2019-04-05T13:32:55.092Z,8.60
2019-04-05T13:35:23.516Z,8.80
2019-04-05T13:37:51.932Z,8.90
2019-04-05T13:40:20.448Z,8.90
2019-04-05T13:42:48.865Z,8.90
2019-04-05T13:45:17.841Z,8.90
2019-04-05T13:47:46.296Z,8.70
2019-04-05T13:50:15.032Z,8.80
2019-04-05T13:52:43.457Z,8.60
2019-04-05T13:55:12.045Z,8.60
2019-04-05T13:57:41.192Z,8.80
2019-04-05T14:00:11.047Z,8.80
2019-04-05T14:02:39.569Z,8.70
2019-04-05T14:05:08.312Z,8.60
2019-04-05T14:07:36.748Z,8.60
2019-04-05T14:10:10.620Z,8.60
2019-04-05T14:12:37.668Z,8.60
2019-04-05T14:15:10.908Z,8.60
2019-04-05T14:17:38.676Z,8.70
2019-04-05T14:20:09.110Z,8.60
2019-04-05T14:22:37.863Z,8.60
2019-04-05T14:25:07.356Z,8.50
2019-04-05T14:27:35.773Z,8.50
2019-04-05T14:30:06.236Z,8.50
2019-04-05T14:32:35.049Z,8.50
2019-04-05T14:35:07.504Z,8.50
2019-04-05T14:37:34.996Z,8.60
2019-04-05T14:40:06.142Z,8.60
2019-04-05T14:42:34.561Z,8.60
2019-04-05T14:45:03.377Z,8.50
2019-04-05T14:47:31.802Z,8.50
2019-04-05T14:50:00.997Z,8.60
2019-04-05T14:52:31.229Z,8.60
2019-04-05T14:54:59.965Z,8.70
2019-04-05T14:57:29.269Z,8.80
2019-04-05T14:59:57.713Z,8.70
2019-04-05T15:02:26.169Z,8.70
2019-04-05T15:04:54.594Z,8.70
2019-04-05T15:07:23.053Z,8.80
2019-04-05T15:09:54.719Z,8.80
2019-04-05T15:12:21.717Z,8.80
2019-04-05T15:14:50.261Z,8.70
2019-04-05T15:17:18.716Z,8.80
2019-04-05T15:19:47.148Z,8.80
2019-04-05T15:22:15.604Z,8.70
2019-04-05T15:24:44.623Z,8.80
2019-04-05T15:27:14.169Z,8.80
2019-04-05T15:29:42.636Z,8.90
2019-04-05T15:32:11.061Z,8.80
2019-04-05T15:34:39.500Z,8.80
2019-04-05T15:37:07.920Z,8.80
2019-04-05T15:39:36.362Z,8.90
2019-04-05T15:42:04.941Z,8.80
2019-04-05T15:44:33.361Z,8.90
2019-04-05T15:47:01.808Z,8.90
2019-04-05T15:49:30.397Z,9.00
2019-04-05T15:51:59.073Z,9.00
2019-04-05T15:54:29.092Z,9.10
2019-04-05T15:56:57.754Z,9.20
2019-04-05T15:59:26.341Z,9.10
2019-04-05T16:01:54.829Z,9.10
2019-04-05T16:04:23.620Z,9.00
2019-04-05T16:06:52.137Z,9.00
2019-04-05T16:09:21.051Z,8.90
2019-04-05T16:11:52.279Z,8.90
2019-04-05T16:14:20.696Z,8.90
2019-04-05T16:16:50.336Z,8.90
2019-04-05T16:19:18.775Z,9.00
2019-04-05T16:21:47.217Z,9.00
2019-04-05T16:24:15.714Z,9.00
2019-04-05T16:26:44.142Z,9.00
2019-04-05T16:29:12.556Z,9.00
2019-04-05T16:31:41.019Z,9.00
2019-04-05T16:34:09.449Z,9.00
2019-04-05T16:36:37.914Z,9.00
2019-04-05T16:39:09.707Z,9.10
2019-04-05T16:41:38.133Z,9.00
2019-04-05T16:44:06.578Z,9.00
2019-04-05T16:46:35.001Z,8.90
2019-04-05T16:49:03.525Z,8.90
2019-04-05T16:51:31.973Z,8.90
2019-04-05T16:54:03.877Z,8.80
2019-04-05T16:56:32.473Z,8.90
2019-04-05T16:59:01.066Z,8.80
2019-04-05T17:01:30.219Z,8.80
2019-04-05T17:03:58.699Z,8.80
2019-04-05T17:06:27.330Z,8.80
2019-04-05T17:08:55.792Z,8.70
2019-04-05T17:11:24.303Z,8.80
2019-04-05T17:13:52.781Z,8.80
2019-04-05T17:16:21.387Z,8.80
2019-04-05T17:18:49.907Z,8.80
2019-04-05T17:21:18.491Z,8.80
2019-04-05T17:23:47.031Z,8.80
2019-04-05T17:26:15.669Z,8.80
2019-04-05T17:28:44.188Z,8.70
2019-04-05T17:31:12.870Z,8.80
2019-04-05T17:33:41.408Z,8.80
2019-04-05T17:36:10.030Z,8.70
2019-04-05T17:38:38.812Z,8.70
2019-04-05T17:41:07.342Z,8.80
2019-04-05T17:43:36.020Z,8.80
2019-04-05T17:46:04.663Z,8.80
2019-04-05T17:48:33.216Z,8.70
2019-04-05T17:51:02.065Z,8.70
2019-04-05T17:53:30.679Z,8.70
2019-04-05T17:55:59.504Z,8.70
2019-04-05T17:58:28.510Z,8.60
2019-04-05T18:00:57.226Z,8.60
2019-04-05T18:03:25.975Z,8.50
2019-04-05T18:05:54.700Z,8.50
2019-04-05T18:08:23.385Z,8.60
2019-04-05T18:10:52.188Z,8.50
2019-04-05T18:13:20.829Z,8.50
2019-04-05T18:15:52.690Z,8.50
2019-04-05T18:18:19.876Z,8.40
2019-04-05T18:20:48.551Z,8.50
2019-04-05T18:23:25.083Z,8.40
2019-04-05T18:25:47.562Z,8.40
2019-04-05T18:28:16.346Z,8.40
2019-04-05T18:30:45.132Z,8.40
2019-04-05T18:33:13.922Z,8.30
2019-04-05T18:35:43.136Z,8.40
2019-04-05T18:38:12.009Z,8.30
2019-04-05T18:40:40.805Z,8.30
2019-04-05T18:43:09.687Z,8.30
2019-04-05T18:45:38.576Z,8.30
2019-04-05T18:48:07.385Z,8.30
2019-04-05T18:50:36.165Z,8.30
2019-04-05T18:53:05.060Z,8.30
2019-04-05T18:55:33.932Z,8.30
2019-04-05T18:58:02.834Z,8.20
2019-04-05T19:00:31.718Z,8.20
2019-04-05T19:03:00.603Z,8.10
2019-04-05T19:05:29.544Z,8.10
2019-04-05T19:07:58.485Z,8.10
2019-04-05T19:10:36.940Z,8.10
2019-04-05T19:12:59.480Z,8.00
2019-04-05T19:15:28.768Z,8.00
2019-04-05T19:17:57.550Z,8.00
2019-04-05T19:20:26.517Z,8.00
2019-04-05T19:22:55.407Z,8.00
2019-04-05T19:25:24.408Z,7.90
2019-04-05T19:27:53.291Z,8.00
2019-04-05T19:50:25.587Z,8.00
2019-04-05T19:52:54.374Z,7.90
2019-04-05T19:55:23.367Z,7.90
2019-04-05T19:57:52.257Z,7.90
2019-04-05T20:00:21.267Z,7.90
2019-04-05T20:02:50.247Z,7.80
2019-04-05T20:05:19.132Z,7.80
2019-04-05T20:07:48.124Z,7.80
2019-04-05T20:10:17.016Z,7.80
2019-04-05T20:12:46.006Z,7.80
2019-04-05T20:15:15.101Z,7.80
2019-04-05T20:17:43.991Z,7.70
2019-04-05T20:20:13.721Z,7.70
2019-04-05T20:22:42.471Z,7.60
2019-04-05T20:25:11.481Z,7.60
2019-04-05T20:27:40.370Z,7.70
2019-04-05T20:30:09.957Z,7.60
2019-04-05T20:32:38.764Z,7.60
2019-04-05T20:35:07.891Z,7.50
2019-04-05T20:37:36.874Z,7.50
2019-04-05T20:40:07.431Z,7.40
2019-04-05T20:42:36.248Z,7.30
2019-04-05T20:45:05.570Z,7.20
2019-04-05T20:47:34.358Z,7.10
2019-04-05T20:50:03.260Z,7.00
2019-04-05T20:52:32.139Z,6.90
2019-04-05T20:55:01.030Z,6.80
2019-04-05T20:57:29.816Z,6.80
2019-04-05T20:59:58.508Z,6.70
2019-04-05T21:02:27.389Z,6.60
2019-04-05T21:04:56.138Z,6.60
2019-04-05T21:07:24.730Z,6.50
2019-04-05T21:09:53.368Z,6.50
2019-04-05T21:12:22.574Z,6.40
2019-04-05T21:14:51.098Z,6.40
2019-04-05T21:17:19.539Z,6.30
2019-04-05T21:19:48.036Z,6.30
2019-04-05T21:22:16.707Z,6.20
2019-04-05T21:24:45.136Z,6.20
2019-04-05T21:27:13.576Z,6.10
2019-04-05T21:29:42.004Z,6.10
2019-04-05T21:32:10.548Z,6.00
2019-04-05T21:34:38.972Z,6.00
2019-04-05T21:37:07.484Z,5.90
2019-04-05T21:39:35.946Z,5.80
2019-04-05T21:42:04.652Z,5.80
2019-04-05T21:44:33.109Z,5.70
2019-04-05T21:47:01.612Z,5.60
2019-04-05T21:49:30.042Z,5.40
2019-04-05T21:51:58.480Z,5.40
2019-04-05T21:54:26.911Z,5.30
2019-04-05T21:56:55.356Z,5.20
2019-04-05T21:59:23.784Z,5.20
2019-04-05T22:01:55.265Z,5.10
2019-04-05T22:04:23.705Z,5.00
2019-04-05T22:06:55.005Z,5.00
2019-04-05T22:09:23.463Z,5.00
2019-04-05T22:11:51.896Z,4.90
2019-04-05T22:14:20.325Z,4.80
2019-04-05T22:16:48.848Z,4.80
2019-04-05T22:19:17.280Z,4.70
2019-04-05T22:21:45.725Z,4.60
2019-04-05T22:24:14.248Z,4.50
2019-04-05T22:26:42.676Z,4.40
2019-04-05T22:29:11.247Z,4.40
2019-04-05T22:31:39.775Z,4.30
2019-04-05T22:34:08.263Z,4.30
2019-04-05T22:36:36.693Z,4.30
2019-04-05T22:39:06.756Z,4.20
2019-04-05T22:41:35.212Z,4.20
2019-04-05T22:44:03.710Z,4.10
2019-04-05T22:46:32.144Z,4.10
2019-04-05T22:49:00.613Z,4.10
2019-04-05T22:51:29.027Z,4.00
2019-04-05T22:53:57.453Z,4.00
2019-04-05T22:56:25.965Z,3.90
2019-04-05T22:58:54.464Z,3.90
2019-04-05T23:01:22.884Z,3.90
2019-04-05T23:03:51.387Z,3.80
2019-04-05T23:06:19.852Z,3.70
2019-04-05T23:08:48.282Z,3.70
2019-04-05T23:11:16.744Z,3.70
2019-04-05T23:13:45.241Z,3.60
2019-04-05T23:16:13.672Z,3.50
2019-04-05T23:18:42.125Z,3.50
2019-04-05T23:21:10.574Z,3.40
2019-04-05T23:23:39.057Z,3.40
2019-04-05T23:26:07.506Z,3.40
2019-04-05T23:28:35.937Z,3.30
2019-04-05T23:31:04.460Z,3.20
2019-04-05T23:33:32.944Z,3.20
2019-04-05T23:36:01.374Z,3.20
2019-04-05T23:38:29.985Z,3.20
2019-04-05T23:40:58.426Z,3.20
2019-04-05T23:43:26.945Z,3.20
2019-04-05T23:45:55.376Z,3.10
2019-04-05T23:48:23.840Z,3.10
2019-04-05T23:50:52.422Z,3.00
2019-04-05T23:53:21.105Z,3.00
2019-04-05T23:55:49.562Z,3.00
2019-04-05T23:58:17.980Z,3.00
